createdAt,value
2018-06-02T00:00:45.901Z,55.00
2018-06-02T00:03:11.934Z,56.13
2018-06-02T00:05:37.984Z,57.77
2018-06-02T00:08:04.009Z,57.83
2018-06-02T00:10:30.033Z,60.60
2018-06-02T00:12:56.053Z,62.53
2018-06-02T00:15:22.073Z,58.53
2018-06-02T00:17:48.122Z,62.53
2018-06-02T00:20:14.150Z,61.07
2018-06-02T00:22:40.177Z,65.77
2018-06-02T00:25:06.226Z,62.23
2018-06-02T00:27:32.260Z,64.63
2018-06-02T00:29:58.302Z,64.13
2018-06-02T00:32:25.076Z,68.60
2018-06-02T00:34:51.101Z,68.00
2018-06-02T00:37:17.134Z,70.43
2018-06-02T00:39:43.168Z,71.30
2018-06-02T00:42:09.197Z,72.40
2018-06-02T00:44:35.221Z,71.30
2018-06-02T00:47:01.258Z,72.87
2018-06-02T00:49:27.287Z,72.43
2018-06-02T00:51:53.311Z,71.50
2018-06-02T00:54:31.631Z,74.03
2018-06-02T00:56:58.411Z,76.63
2018-06-02T00:59:24.433Z,76.53
2018-06-02T01:01:50.457Z,69.63
2018-06-02T01:04:16.485Z,73.43
2018-06-02T01:06:42.575Z,74.67
2018-06-02T01:09:09.354Z,78.63
2018-06-02T01:11:35.393Z,68.93
2018-06-02T01:14:01.441Z,76.87
2018-06-02T01:16:27.465Z,71.00
2018-06-02T01:18:53.501Z,73.10
2018-06-02T01:21:19.529Z,68.40
2018-06-02T01:23:45.557Z,74.47
2018-06-02T01:26:11.577Z,70.60
2018-06-02T01:28:37.600Z,76.70
2018-06-02T01:31:03.628Z,79.10
2018-06-02T01:33:29.653Z,76.23
2018-06-02T01:35:55.672Z,75.20
2018-06-02T01:38:21.691Z,72.97
2018-06-02T01:40:47.705Z,71.23
2018-06-02T01:43:13.724Z,69.37
2018-06-02T01:45:39.763Z,69.33
2018-06-02T01:48:05.786Z,73.80
2018-06-02T01:50:31.813Z,66.70
2018-06-02T01:52:57.829Z,73.73
2018-06-02T01:55:23.858Z,72.27
2018-06-02T01:57:50.612Z,71.93
2018-06-02T02:00:16.645Z,68.27
2018-06-02T02:02:42.660Z,71.30
2018-06-02T02:05:08.696Z,73.70
2018-06-02T02:07:34.723Z,74.73
2018-06-02T02:10:00.741Z,72.60
2018-06-02T02:12:26.768Z,77.30
2018-06-02T02:14:52.785Z,73.93
2018-06-02T02:17:18.805Z,72.33
2018-06-02T02:19:44.822Z,71.43
2018-06-02T02:22:10.848Z,72.97
2018-06-02T02:24:36.869Z,73.47
2018-06-02T02:27:02.889Z,71.20
2018-06-02T02:29:28.910Z,69.40
2018-06-02T02:31:54.940Z,71.07
2018-06-02T02:34:20.964Z,71.57
2018-06-02T02:36:46.989Z,72.57
2018-06-02T02:39:13.021Z,66.50
2018-06-02T02:41:39.040Z,70.10
2018-06-02T02:44:05.069Z,68.50
2018-06-02T02:46:31.083Z,70.70
2018-06-02T02:48:57.113Z,67.87
2018-06-02T02:51:23.133Z,64.67
2018-06-02T02:53:49.159Z,65.10
2018-06-02T02:56:15.188Z,63.13
2018-06-02T02:58:41.236Z,67.20
2018-06-02T03:01:07.273Z,63.73
2018-06-02T03:03:33.311Z,66.40
2018-06-02T03:05:59.321Z,64.80
2018-06-02T03:08:25.344Z,63.60
2018-06-02T03:10:51.365Z,68.87
2018-06-02T03:13:17.380Z,68.77
2018-06-02T03:15:43.397Z,67.90
2018-06-02T03:18:09.417Z,63.00
2018-06-02T03:20:35.448Z,66.60
2018-06-02T03:23:01.472Z,64.57
2018-06-02T03:25:27.516Z,65.83
2018-06-02T03:27:53.541Z,66.30
2018-06-02T03:30:19.577Z,65.90
2018-06-02T03:32:45.609Z,60.57
2018-06-02T03:35:11.637Z,61.17
2018-06-02T03:37:37.697Z,66.23
2018-06-02T03:40:03.722Z,61.53
2018-06-02T03:42:29.746Z,64.33
2018-06-02T03:44:55.773Z,54.57
2018-06-02T03:47:22.528Z,57.13
2018-06-02T03:49:48.568Z,52.97
2018-06-02T03:52:14.584Z,56.70
2018-06-02T03:54:40.632Z,52.73
2018-06-02T03:57:06.646Z,52.13
2018-06-02T03:59:32.666Z,52.87
2018-06-02T04:01:58.692Z,52.53
2018-06-02T04:04:24.721Z,54.33
2018-06-02T04:06:50.741Z,52.30
2018-06-02T04:09:16.773Z,51.43
2018-06-02T04:11:42.793Z,51.53
2018-06-02T04:14:09.627Z,50.43
2018-06-02T04:16:35.660Z,49.63
2018-06-02T04:19:01.689Z,51.63
2018-06-02T04:21:27.728Z,50.03
2018-06-02T04:23:53.749Z,48.93
2018-06-02T04:26:19.764Z,44.70
2018-06-02T04:28:45.782Z,47.67
2018-06-02T04:31:11.816Z,43.47
2018-06-02T04:33:37.830Z,43.03
2018-06-02T04:36:03.848Z,39.07
2018-06-02T04:38:29.864Z,37.73
2018-06-02T04:41:10.876Z,36.43
2018-06-02T04:43:51.928Z,39.20
2018-06-02T04:46:32.952Z,36.10
2018-06-02T04:49:13.968Z,35.97
2018-06-02T04:51:54.992Z,33.77
2018-06-02T04:54:36.029Z,35.73
2018-06-02T04:57:17.042Z,34.10
2018-06-02T04:59:58.069Z,34.93
2018-06-02T05:02:39.106Z,34.00
2018-06-02T05:05:20.117Z,32.90
2018-06-02T05:08:01.132Z,33.47
2018-06-02T05:10:42.157Z,33.90
2018-06-02T05:13:23.190Z,33.57
2018-06-02T05:16:04.953Z,35.97
2018-06-02T05:18:45.979Z,35.67
2018-06-02T05:21:26.989Z,35.57
2018-06-02T05:24:08.005Z,37.97
2018-06-02T05:26:49.038Z,36.43
2018-06-02T05:29:30.816Z,37.83
2018-06-02T05:32:11.840Z,36.50
2018-06-02T05:34:52.864Z,36.83
2018-06-02T05:37:33.882Z,36.00
2018-06-02T05:40:14.929Z,36.20
2018-06-02T05:42:55.948Z,35.60
2018-06-02T05:45:37.712Z,33.77
2018-06-02T05:48:18.741Z,33.47
2018-06-02T05:50:59.749Z,34.27
2018-06-02T05:53:40.773Z,33.93
2018-06-02T05:56:21.813Z,32.40
2018-06-02T05:59:02.837Z,30.27
2018-06-02T06:01:43.862Z,28.27
2018-06-02T06:04:24.880Z,27.87
2018-06-02T06:07:05.910Z,27.70
2018-06-02T06:09:46.948Z,27.37
2018-06-02T06:12:28.093Z,24.70
2018-06-02T06:15:09.109Z,22.07
2018-06-02T06:17:50.135Z,21.17
2018-06-02T06:20:31.141Z,19.33
2018-06-02T06:23:12.173Z,19.37
2018-06-02T06:25:53.192Z,19.67
2018-06-02T06:28:34.217Z,19.73
2018-06-02T06:31:15.232Z,19.40
2018-06-02T06:33:56.261Z,19.33
2018-06-02T06:36:37.268Z,18.20
2018-06-02T06:39:18.292Z,18.23
2018-06-02T06:41:59.304Z,16.47
2018-06-02T06:44:40.432Z,16.43
2018-06-02T06:47:21.360Z,15.97
2018-06-02T06:50:02.381Z,14.97
2018-06-02T06:52:43.418Z,14.73
2018-06-02T06:55:24.456Z,13.83
2018-06-02T06:58:05.484Z,13.07
2018-06-02T07:00:46.504Z,13.47
2018-06-02T07:03:27.542Z,12.63
2018-06-02T07:06:08.566Z,12.30
2018-06-02T07:08:49.631Z,11.67
2018-06-02T07:11:30.656Z,11.37
2018-06-02T07:14:11.706Z,12.07
2018-06-02T07:16:52.727Z,10.87
2018-06-02T07:19:33.757Z,10.47
2018-06-02T07:22:14.792Z,10.30
2018-06-02T07:24:55.886Z,10.20
2018-06-02T07:27:36.885Z,10.00
2018-06-02T07:30:17.865Z,10.80
2018-06-02T07:32:58.881Z,9.37
2018-06-02T07:35:39.896Z,10.60
2018-06-02T07:38:20.916Z,9.70
2018-06-02T07:41:01.937Z,10.50
2018-06-02T07:43:42.973Z,8.87
2018-06-02T07:46:24.012Z,8.93
2018-06-02T07:49:05.042Z,8.80
2018-06-02T07:51:46.060Z,8.90
2018-06-02T07:54:27.077Z,9.43
2018-06-02T07:57:08.108Z,8.67
2018-06-02T07:59:49.155Z,9.20
2018-06-02T08:02:30.182Z,8.67
2018-06-02T08:05:11.207Z,8.23
2018-06-02T08:07:52.260Z,8.93
2018-06-02T08:10:34.029Z,9.43
2018-06-02T08:13:15.041Z,7.90
2018-06-02T08:15:56.052Z,8.53
2018-06-02T08:18:37.081Z,9.73
2018-06-02T08:21:18.110Z,8.83
2018-06-02T08:23:59.159Z,9.00
2018-06-02T08:26:40.186Z,8.80
2018-06-02T08:29:21.197Z,7.90
2018-06-02T08:32:02.230Z,9.20
2018-06-02T08:34:43.257Z,8.97
2018-06-02T08:37:24.277Z,9.23
2018-06-02T08:40:05.296Z,9.23
2018-06-02T08:42:46.325Z,10.23
2018-06-02T08:45:27.353Z,10.80
2018-06-02T08:48:08.388Z,11.37
2018-06-02T08:50:49.417Z,12.20
2018-06-02T08:53:30.437Z,11.93
2018-06-02T08:56:11.472Z,11.70
2018-06-02T08:58:52.513Z,12.27
2018-06-02T09:01:33.553Z,11.07
2018-06-02T09:04:14.580Z,10.90
2018-06-02T09:06:55.602Z,9.83
2018-06-02T09:09:36.629Z,9.77
2018-06-02T09:12:17.650Z,9.07
2018-06-02T09:14:58.679Z,8.80
2018-06-02T09:17:39.701Z,10.00
2018-06-02T09:20:20.729Z,10.10
2018-06-02T09:23:01.751Z,10.93
2018-06-02T09:25:42.782Z,11.17
2018-06-02T09:28:23.801Z,10.30
2018-06-02T09:31:04.831Z,11.43
2018-06-02T09:33:45.928Z,10.97
2018-06-02T09:36:26.951Z,11.47
2018-06-02T09:39:07.964Z,11.23
2018-06-02T09:41:48.989Z,12.03
2018-06-02T09:44:30.017Z,12.17
2018-06-02T09:47:11.040Z,12.00
2018-06-02T09:49:52.061Z,11.37
2018-06-02T09:52:33.101Z,10.63
2018-06-02T09:55:14.129Z,9.87
2018-06-02T09:57:55.155Z,9.70
2018-06-02T10:00:36.185Z,9.47
2018-06-02T10:03:17.225Z,9.13
2018-06-02T10:05:58.281Z,8.90
2018-06-02T10:08:40.012Z,9.00
2018-06-02T10:11:21.045Z,9.43
2018-06-02T10:14:02.082Z,8.47
2018-06-02T10:16:43.139Z,7.77
2018-06-02T10:19:24.161Z,7.83
2018-06-02T10:22:05.204Z,7.27
2018-06-02T10:24:46.221Z,7.43
2018-06-02T10:27:27.258Z,7.27
2018-06-02T10:30:09.857Z,6.60
2018-06-02T10:32:50.993Z,6.80
2018-06-02T10:35:32.078Z,7.33
2018-06-02T10:38:13.049Z,6.73
2018-06-02T10:40:54.064Z,6.90
2018-06-02T10:43:35.103Z,6.43
2018-06-02T10:46:16.129Z,6.90
2018-06-02T10:48:57.169Z,7.10
2018-06-02T10:51:38.236Z,7.20
2018-06-02T10:54:20.033Z,7.27
2018-06-02T10:57:01.816Z,6.73
2018-06-02T10:59:42.845Z,6.73
2018-06-02T11:02:23.874Z,6.80
2018-06-02T11:05:04.889Z,7.23
2018-06-02T11:07:45.909Z,6.73
2018-06-02T11:10:26.969Z,6.30
2018-06-02T11:13:08.013Z,6.80
2018-06-02T11:15:49.029Z,7.33
2018-06-02T11:18:30.065Z,7.30
2018-06-02T11:21:11.089Z,7.73
2018-06-02T11:23:52.097Z,8.17
2018-06-02T11:26:33.118Z,8.00
2018-06-02T11:29:14.889Z,7.37
2018-06-02T11:31:55.953Z,7.70
2018-06-02T11:34:36.978Z,7.40
2018-06-02T11:37:18.009Z,8.30
2018-06-02T11:39:59.053Z,8.27
2018-06-02T11:42:40.830Z,8.10
2018-06-02T11:45:21.873Z,8.90
2018-06-02T11:48:02.912Z,8.10
2018-06-02T11:50:43.973Z,7.67
2018-06-02T11:53:24.992Z,7.63
2018-06-02T11:56:06.009Z,7.43
2018-06-02T11:58:47.033Z,7.50
2018-06-02T12:01:28.072Z,8.13
2018-06-02T12:04:09.097Z,7.67
2018-06-02T12:06:50.125Z,7.73
2018-06-02T12:09:31.190Z,8.37
2018-06-02T12:12:12.225Z,7.70
2018-06-02T12:14:53.253Z,7.20
2018-06-02T12:17:34.281Z,7.50
2018-06-02T12:20:15.318Z,7.80
2018-06-02T12:22:57.101Z,7.67
2018-06-02T12:25:38.125Z,7.10
2018-06-02T12:28:19.232Z,8.40
2018-06-02T12:31:00.195Z,7.70
2018-06-02T12:33:41.311Z,8.40
2018-06-02T12:36:22.345Z,7.20
2018-06-02T12:39:04.207Z,7.87
2018-06-02T12:41:45.236Z,8.23
2018-06-02T12:44:26.271Z,8.20
2018-06-02T12:47:07.305Z,7.87
2018-06-02T12:49:48.345Z,9.07
2018-06-02T12:52:29.388Z,9.23
2018-06-02T12:55:10.417Z,8.47
2018-06-02T12:57:51.441Z,8.83
2018-06-02T13:00:32.477Z,8.40
2018-06-02T13:03:13.507Z,7.87
2018-06-02T13:05:54.565Z,7.90
2018-06-02T13:08:35.589Z,8.17
2018-06-02T13:11:16.630Z,9.03
2018-06-02T13:13:57.653Z,10.07
2018-06-02T13:16:38.677Z,9.77
2018-06-02T13:19:19.701Z,9.50
2018-06-02T13:22:00.745Z,8.37
2018-06-02T13:24:41.764Z,8.67
2018-06-02T13:27:22.793Z,7.60
2018-06-02T13:30:03.800Z,7.63
2018-06-02T13:32:44.817Z,7.87
2018-06-02T13:35:25.833Z,7.90
2018-06-02T13:38:06.861Z,8.20
2018-06-02T13:40:48.627Z,8.63
2018-06-02T13:43:29.652Z,8.60
2018-06-02T13:46:10.685Z,7.70
2018-06-02T13:48:51.713Z,8.73
2018-06-02T13:51:32.745Z,9.13
2018-06-02T13:54:13.781Z,8.30
2018-06-02T13:56:54.826Z,8.83
2018-06-02T13:59:35.856Z,8.20
2018-06-02T14:02:17.691Z,8.07
2018-06-02T14:04:58.717Z,8.43
2018-06-02T14:07:39.747Z,8.30
2018-06-02T14:10:20.803Z,10.70
2018-06-02T14:13:02.585Z,10.23
2018-06-02T14:15:43.609Z,9.20
2018-06-02T14:18:24.636Z,9.50
2018-06-02T14:21:05.673Z,9.40
2018-06-02T14:23:46.703Z,8.60
2018-06-02T14:26:28.488Z,7.83
2018-06-02T14:29:10.281Z,7.67
2018-06-02T14:31:52.057Z,7.57
2018-06-02T14:34:33.088Z,7.40
2018-06-02T14:37:14.136Z,7.33
2018-06-02T14:39:55.154Z,8.10
2018-06-02T14:42:36.180Z,8.63
2018-06-02T14:45:17.953Z,8.00
2018-06-02T14:47:58.969Z,8.53
2018-06-02T14:50:39.985Z,8.80
2018-06-02T14:53:21.029Z,8.67
2018-06-02T14:56:02.053Z,7.83
2018-06-02T14:58:43.121Z,8.47
2018-06-02T15:01:24.144Z,9.27
2018-06-02T15:04:05.173Z,9.93
2018-06-02T15:06:46.200Z,10.30
2018-06-02T15:09:27.234Z,9.77
2018-06-02T15:12:08.296Z,10.37
2018-06-02T15:14:49.341Z,10.73
2018-06-02T15:17:30.366Z,10.93
2018-06-02T15:20:11.417Z,10.20
2018-06-02T15:22:52.433Z,9.77
2018-06-02T15:25:33.468Z,9.20
2018-06-02T15:28:14.493Z,10.37
2018-06-02T15:30:55.529Z,9.80
2018-06-02T15:33:36.559Z,10.67
2018-06-02T15:36:17.590Z,12.20
2018-06-02T15:38:58.621Z,11.33
2018-06-02T15:41:39.652Z,12.03
2018-06-02T15:44:20.676Z,12.20
2018-06-02T15:47:01.697Z,11.40
2018-06-02T15:49:42.724Z,10.00
2018-06-02T15:52:23.758Z,9.57
2018-06-02T15:55:04.785Z,8.83
2018-06-02T15:57:45.817Z,8.77
2018-06-02T16:00:26.845Z,8.73
2018-06-02T16:03:07.872Z,8.03
2018-06-02T16:05:48.893Z,9.57
2018-06-02T16:08:29.921Z,9.47
2018-06-02T16:11:10.976Z,10.80
2018-06-02T16:13:52.065Z,9.73
2018-06-02T16:16:33.090Z,9.10
2018-06-02T16:19:14.147Z,9.20
2018-06-02T16:21:55.924Z,8.93
2018-06-02T16:24:36.961Z,9.30
2018-06-02T16:27:17.996Z,9.47
2018-06-02T16:29:59.021Z,7.93
2018-06-02T16:32:40.065Z,8.00
2018-06-02T16:35:21.137Z,7.93
2018-06-02T16:38:02.168Z,8.40
2018-06-02T16:40:43.201Z,8.40
2018-06-02T16:43:24.241Z,9.03
2018-06-02T16:46:05.282Z,8.73
2018-06-02T16:48:46.309Z,8.37
2018-06-02T16:51:27.336Z,8.10
2018-06-02T16:54:08.377Z,7.73
2018-06-02T16:56:49.396Z,7.53
2018-06-02T16:59:30.437Z,9.43
2018-06-02T17:02:11.461Z,9.10
2018-06-02T17:04:52.492Z,9.50
2018-06-02T17:07:33.565Z,8.87
2018-06-02T17:10:14.599Z,8.97
2018-06-02T17:12:55.668Z,9.03
2018-06-02T17:15:36.705Z,9.63
2018-06-02T17:18:17.728Z,10.90
2018-06-02T17:20:58.752Z,11.20
2018-06-02T17:23:39.800Z,11.63
2018-06-02T17:26:20.829Z,11.80
2018-06-02T17:29:01.858Z,12.07
2018-06-02T17:31:42.877Z,11.33
2018-06-02T17:34:23.900Z,13.87
2018-06-02T17:37:04.925Z,13.97
2018-06-02T17:39:45.957Z,13.43
2018-06-02T17:42:26.980Z,13.87
2018-06-02T17:45:08.000Z,13.93
2018-06-02T17:47:49.765Z,14.30
2018-06-02T17:50:15.789Z,14.87
2018-06-02T17:52:41.881Z,15.27
2018-06-02T17:55:07.874Z,16.27
2018-06-02T17:57:33.905Z,17.43
2018-06-02T17:59:59.937Z,18.67
2018-06-02T18:02:25.965Z,19.50
2018-06-02T18:04:51.989Z,18.47
2018-06-02T18:07:18.009Z,19.00
2018-06-02T18:09:44.035Z,20.90
2018-06-02T18:12:10.074Z,21.53
2018-06-02T18:14:36.113Z,21.43
2018-06-02T18:17:02.156Z,21.87
2018-06-02T18:19:28.189Z,21.97
2018-06-02T18:21:54.209Z,21.03
2018-06-02T18:24:20.235Z,21.23
2018-06-02T18:26:46.269Z,20.93
2018-06-02T18:29:12.289Z,21.53
2018-06-02T18:31:38.308Z,22.53
2018-06-02T18:34:04.333Z,23.40
2018-06-02T18:36:30.368Z,23.60
2018-06-02T18:38:56.381Z,21.87
2018-06-02T18:41:22.405Z,23.13
2018-06-02T18:43:48.440Z,23.27
2018-06-02T18:46:14.460Z,21.60
2018-06-02T18:48:40.489Z,22.53
2018-06-02T18:51:06.525Z,22.20
2018-06-02T18:53:32.598Z,21.37
2018-06-02T18:55:58.594Z,21.67
2018-06-02T18:58:24.614Z,22.13
2018-06-02T19:00:50.636Z,20.90
2018-06-02T19:03:16.656Z,21.87
2018-06-02T19:05:42.672Z,22.53
2018-06-02T19:08:08.694Z,25.27
2018-06-02T19:10:34.721Z,25.70
2018-06-02T19:13:00.745Z,24.50
2018-06-02T19:15:26.828Z,26.97
2018-06-02T19:17:52.819Z,26.43
2018-06-02T19:20:18.884Z,28.37
2018-06-02T19:22:44.973Z,28.63
2018-06-02T19:25:11.021Z,32.53
2018-06-02T19:27:37.041Z,32.20
2018-06-02T19:30:03.081Z,35.13
2018-06-02T19:32:29.105Z,37.57
2018-06-02T19:34:55.146Z,41.23
2018-06-02T19:37:21.164Z,38.97
2018-06-02T19:39:47.185Z,39.90
2018-06-02T19:42:13.209Z,43.00
2018-06-02T19:44:39.232Z,40.77
2018-06-02T19:47:05.261Z,41.80
2018-06-02T19:49:31.305Z,41.73
2018-06-02T19:51:57.328Z,43.97
2018-06-02T19:54:23.366Z,44.03
2018-06-02T19:56:49.385Z,43.00
2018-06-02T19:59:15.408Z,44.13
2018-06-02T20:01:41.505Z,43.97
2018-06-02T20:04:07.537Z,43.90
2018-06-02T20:06:33.566Z,43.87
2018-06-02T20:08:59.636Z,44.97
2018-06-02T20:11:25.656Z,43.53
2018-06-02T20:13:51.683Z,46.07
2018-06-02T20:16:17.716Z,43.50
2018-06-02T20:18:44.484Z,45.87
2018-06-02T20:21:10.510Z,46.20
2018-06-02T20:23:36.537Z,45.53
2018-06-02T20:26:02.549Z,46.73
2018-06-02T20:28:28.578Z,46.27
2018-06-02T20:30:54.650Z,47.23
2018-06-02T20:33:20.668Z,47.67
2018-06-02T20:35:46.709Z,45.60
2018-06-02T20:38:12.727Z,47.40
2018-06-02T20:40:39.486Z,46.80
2018-06-02T20:43:05.522Z,47.73
2018-06-02T20:45:31.565Z,49.47
2018-06-02T20:47:57.597Z,49.33
2018-06-02T20:50:23.673Z,48.47
2018-06-02T20:52:49.698Z,47.67
2018-06-02T20:55:15.720Z,47.07
2018-06-02T20:57:41.736Z,49.30
2018-06-02T21:00:08.269Z,48.07
2018-06-02T21:02:34.297Z,48.53
2018-06-02T21:05:00.325Z,49.03
2018-06-02T21:07:26.349Z,49.47
2018-06-02T21:09:52.370Z,51.23
2018-06-02T21:12:18.405Z,50.53
2018-06-02T21:14:44.438Z,50.77
2018-06-02T21:17:10.457Z,49.33
2018-06-02T21:19:36.477Z,49.90
2018-06-02T21:22:02.501Z,51.87
2018-06-02T21:24:28.524Z,50.83
2018-06-02T21:26:54.594Z,50.20
2018-06-02T21:29:20.630Z,49.43
2018-06-02T21:31:46.640Z,48.37
2018-06-02T21:34:12.677Z,48.17
2018-06-02T21:36:38.724Z,47.30
2018-06-02T21:39:04.753Z,50.10
2018-06-02T21:41:30.860Z,48.67
2018-06-02T21:43:56.892Z,45.23
2018-06-02T21:46:22.916Z,48.07
2018-06-02T21:48:48.942Z,45.90
2018-06-02T21:51:14.966Z,46.13
2018-06-02T21:53:40.981Z,48.60
2018-06-02T21:56:07.009Z,45.40
2018-06-02T21:58:33.018Z,45.10
2018-06-02T22:00:59.054Z,46.60
2018-06-02T22:03:25.074Z,45.67
2018-06-02T22:05:51.095Z,45.67
2018-06-02T22:08:17.138Z,45.03
2018-06-02T22:10:43.173Z,45.47
2018-06-02T22:13:09.208Z,43.77
2018-06-02T22:15:35.224Z,42.90
2018-06-02T22:18:01.254Z,43.30
2018-06-02T22:20:27.312Z,42.33
2018-06-02T22:22:53.338Z,41.23
2018-06-02T22:25:19.368Z,40.90
2018-06-02T22:27:45.396Z,43.23
2018-06-02T22:30:12.178Z,43.53
2018-06-02T22:32:38.248Z,44.00
2018-06-02T22:35:04.269Z,45.90
2018-06-02T22:37:30.289Z,43.80
2018-06-02T22:39:56.314Z,43.63
2018-06-02T22:42:22.341Z,42.50
2018-06-02T22:44:48.364Z,46.87
2018-06-02T22:47:14.385Z,42.90
2018-06-02T22:49:40.404Z,45.07
2018-06-02T22:52:06.424Z,45.30
2018-06-02T22:54:32.437Z,47.43
2018-06-02T22:56:58.452Z,46.97
2018-06-02T22:59:24.472Z,43.83
2018-06-02T23:01:50.488Z,43.37
2018-06-02T23:04:16.541Z,43.77
2018-06-02T23:06:42.555Z,43.57
2018-06-02T23:09:08.577Z,43.40
2018-06-02T23:11:34.593Z,44.00
2018-06-02T23:14:00.641Z,43.30
2018-06-02T23:16:26.660Z,43.37
2018-06-02T23:18:52.685Z,45.33
2018-06-02T23:21:18.693Z,44.53
2018-06-02T23:23:44.717Z,45.57
2018-06-02T23:26:10.741Z,44.13
2018-06-02T23:28:36.760Z,46.23
2018-06-02T23:31:02.786Z,45.20
2018-06-02T23:33:28.820Z,43.07
2018-06-02T23:35:54.837Z,42.73
2018-06-02T23:38:20.860Z,40.20
2018-06-02T23:40:46.872Z,41.00
2018-06-02T23:43:12.897Z,41.53
2018-06-02T23:45:38.921Z,39.37
2018-06-02T23:48:04.945Z,39.90
2018-06-02T23:50:30.964Z,38.07
2018-06-02T23:52:56.985Z,41.70
2018-06-02T23:55:23.004Z,42.63
2018-06-02T23:57:49.053Z,42.10
